sensor_id;sensor_type;location;lat;lon;timestamp;temperature;humidity
16388;DHT22;8303;53.446;9.988;2023-05-19T04:46:35;8.60;1.00
16388;DHT22;8303;53.446;9.988;2023-05-19T04:49:03;8.50;1.00
16388;DHT22;8303;53.446;9.988;2023-05-19T04:51:30;8.60;1.00
16388;DHT22;8303;53.446;9.988;2023-05-19T04:53:57;8.70;1.00
16388;DHT22;8303;53.446;9.988;2023-05-19T04:56:24;8.80;1.00
16388;DHT22;8303;53.446;9.988;2023-05-19T04:58:52;8.80;1.00
16388;DHT22;8303;53.446;9.988;2023-05-19T05:01:19;8.90;1.00
16388;DHT22;8303;53.446;9.988;2023-05-19T05:03:52;9.00;1.00
16388;DHT22;8303;53.446;9.988;2023-05-19T05:06:20;9.10;1.00
16388;DHT22;8303;53.446;9.988;2023-05-19T05:08:47;9.20;1.00
16388;DHT22;8303;53.446;9.988;2023-05-19T05:11:16;9.20;1.00
16388;DHT22;8303;53.446;9.988;2023-05-19T05:13:46;9.30;1.00
16388;DHT22;8303;53.446;9.988;2023-05-19T05:16:13;9.30;1.00
16388;DHT22;8303;53.446;9.988;2023-05-19T05:18:41;9.40;1.00
16388;DHT22;8303;53.446;9.988;2023-05-19T05:21:11;9.40;1.00
16388;DHT22;8303;53.446;9.988;2023-05-19T05:23:39;9.40;1.00
16388;DHT22;8303;53.446;9.988;2023-05-19T05:26:17;9.40;1.00
16388;DHT22;8303;53.446;9.988;2023-05-19T05:28:46;9.50;1.00
16388;DHT22;8303;53.446;9.988;2023-05-19T05:31:13;9.40;1.00
16388;DHT22;8303;53.446;9.988;2023-05-19T05:33:41;9.50;1.00
16388;DHT22;8303;53.446;9.988;2023-05-19T05:36:09;9.70;1.00
16388;DHT22;8303;53.446;9.988;2023-05-19T05:38:38;9.70;1.00
16388;DHT22;8303;53.446;9.988;2023-05-19T05:41:05;9.90;1.00
16388;DHT22;8303;53.446;9.988;2023-05-19T05:43:33;9.80;1.00
16388;DHT22;8303;53.446;9.988;2023-05-19T05:46:00;10.00;1.00
16388;DHT22;8303;53.446;9.988;2023-05-19T05:48:28;10.00;1.00
16388;DHT22;8303;53.446;9.988;2023-05-19T05:50:56;10.00;1.00
16388;DHT22;8303;53.446;9.988;2023-05-19T05:53:25;10.10;1.00
16388;DHT22;8303;53.446;9.988;2023-05-19T05:55:56;10.20;1.00
16388;DHT22;8303;53.446;9.988;2023-05-19T05:58:23;10.30;1.00
16388;DHT22;8303;53.446;9.988;2023-05-19T06:00:51;10.30;1.00
16388;DHT22;8303;53.446;9.988;2023-05-19T06:03:22;10.40;1.00
16388;DHT22;8303;53.446;9.988;2023-05-19T06:05:49;10.50;1.00
16388;DHT22;8303;53.446;9.988;2023-05-19T06:08:16;10.60;1.00
16388;DHT22;8303;53.446;9.988;2023-05-19T06:10:45;10.60;1.00
16388;DHT22;8303;53.446;9.988;2023-05-19T06:13:12;10.80;1.00
16388;DHT22;8303;53.446;9.988;2023-05-19T06:15:42;10.90;1.00
16388;DHT22;8303;53.446;9.988;2023-05-19T06:18:09;11.00;1.00
16388;DHT22;8303;53.446;9.988;2023-05-19T06:20:36;11.00;1.00
16388;DHT22;8303;53.446;9.988;2023-05-19T06:23:04;11.10;1.00
16388;DHT22;8303;53.446;9.988;2023-05-19T06:25:31;11.10;1.00
16388;DHT22;8303;53.446;9.988;2023-05-19T06:28:00;11.20;1.00
16388;DHT22;8303;53.446;9.988;2023-05-19T06:30:30;11.20;1.00
16388;DHT22;8303;53.446;9.988;2023-05-19T06:32:57;11.30;1.00
16388;DHT22;8303;53.446;9.988;2023-05-19T06:35:25;11.50;1.00
16388;DHT22;8303;53.446;9.988;2023-05-19T06:37:52;11.50;1.00
16388;DHT22;8303;53.446;9.988;2023-05-19T06:40:20;11.70;1.00
16388;DHT22;8303;53.446;9.988;2023-05-19T06:42:47;11.80;1.00
16388;DHT22;8303;53.446;9.988;2023-05-19T06:45:16;12.10;1.00
16388;DHT22;8303;53.446;9.988;2023-05-19T06:47:47;12.30;1.00
16388;DHT22;8303;53.446;9.988;2023-05-19T06:50:14;12.20;1.00
16388;DHT22;8303;53.446;9.988;2023-05-19T06:52:41;12.20;1.00
16388;DHT22;8303;53.446;9.988;2023-05-19T06:55:09;12.30;1.00
16388;DHT22;8303;53.446;9.988;2023-05-19T06:57:36;12.30;1.00
16388;DHT22;8303;53.446;9.988;2023-05-19T07:00:04;12.50;1.00
16388;DHT22;8303;53.446;9.988;2023-05-19T07:02:34;12.70;1.00
16388;DHT22;8303;53.446;9.988;2023-05-19T07:05:02;12.70;1.00
16388;DHT22;8303;53.446;9.988;2023-05-19T07:07:29;12.70;1.00
16388;DHT22;8303;53.446;9.988;2023-05-19T07:09:56;12.60;1.00
16388;DHT22;8303;53.446;9.988;2023-05-19T07:12:24;12.60;1.00
16388;DHT22;8303;53.446;9.988;2023-05-19T07:14:51;12.70;1.00
16388;DHT22;8303;53.446;9.988;2023-05-19T07:17:18;12.80;1.00
16388;DHT22;8303;53.446;9.988;2023-05-19T07:19:47;12.90;1.00
16388;DHT22;8303;53.446;9.988;2023-05-19T07:22:14;13.10;1.00
16388;DHT22;8303;53.446;9.988;2023-05-19T07:24:41;13.10;1.00
16388;DHT22;8303;53.446;9.988;2023-05-19T07:27:09;13.20;1.00
16388;DHT22;8303;53.446;9.988;2023-05-19T07:29:36;13.20;1.00
16388;DHT22;8303;53.446;9.988;2023-05-19T07:32:04;13.10;1.00
16388;DHT22;8303;53.446;9.988;2023-05-19T07:34:32;13.40;1.00
16388;DHT22;8303;53.446;9.988;2023-05-19T07:37:01;13.50;1.00
16388;DHT22;8303;53.446;9.988;2023-05-19T07:39:28;13.60;1.00
16388;DHT22;8303;53.446;9.988;2023-05-19T07:41:57;13.70;1.00
16388;DHT22;8303;53.446;9.988;2023-05-19T07:44:24;14.00;1.00
16388;DHT22;8303;53.446;9.988;2023-05-19T07:46:51;14.10;1.00
16388;DHT22;8303;53.446;9.988;2023-05-19T07:49:19;14.40;1.00
16388;DHT22;8303;53.446;9.988;2023-05-19T07:51:46;14.70;99.90
16388;DHT22;8303;53.446;9.988;2023-05-19T07:54:15;14.80;99.90
16388;DHT22;8303;53.446;9.988;2023-05-19T07:56:43;15.00;99.90
16388;DHT22;8303;53.446;9.988;2023-05-19T07:59:10;15.10;99.90
16388;DHT22;8303;53.446;9.988;2023-05-19T08:01:38;15.10;99.90
16388;DHT22;8303;53.446;9.988;2023-05-19T08:04:05;15.10;99.90
16388;DHT22;8303;53.446;9.988;2023-05-19T08:06:32;15.10;99.90
16388;DHT22;8303;53.446;9.988;2023-05-19T08:08:59;15.40;99.90
16388;DHT22;8303;53.446;9.988;2023-05-19T08:11:28;15.30;99.90
16388;DHT22;8303;53.446;9.988;2023-05-19T08:13:56;15.40;99.90
16388;DHT22;8303;53.446;9.988;2023-05-19T08:16:23;15.50;99.90
16388;DHT22;8303;53.446;9.988;2023-05-19T08:18:50;15.50;99.90
16388;DHT22;8303;53.446;9.988;2023-05-19T08:21:17;15.60;99.90
16388;DHT22;8303;53.446;9.988;2023-05-19T08:23:45;15.90;99.90
16388;DHT22;8303;53.446;9.988;2023-05-19T08:26:12;16.20;99.90
16388;DHT22;8303;53.446;9.988;2023-05-19T08:28:40;16.40;99.90
16388;DHT22;8303;53.446;9.988;2023-05-19T08:31:08;16.60;99.90
16388;DHT22;8303;53.446;9.988;2023-05-19T08:33:36;16.00;99.90
16388;DHT22;8303;53.446;9.988;2023-05-19T08:36:04;16.20;99.90
16388;DHT22;8303;53.446;9.988;2023-05-19T08:38:31;16.50;99.90
16388;DHT22;8303;53.446;9.988;2023-05-19T08:40:58;16.70;99.90
16388;DHT22;8303;53.446;9.988;2023-05-19T08:43:25;16.90;99.90
16388;DHT22;8303;53.446;9.988;2023-05-19T08:45:54;16.80;99.90
16388;DHT22;8303;53.446;9.988;2023-05-19T08:48:22;16.60;99.90
16388;DHT22;8303;53.446;9.988;2023-05-19T08:50:55;16.70;99.90
16388;DHT22;8303;53.446;9.988;2023-05-19T08:53:26;16.60;99.90
16388;DHT22;8303;53.446;9.988;2023-05-19T08:56:00;16.60;99.90
16388;DHT22;8303;53.446;9.988;2023-05-19T08:58:35;16.70;99.90
16388;DHT22;8303;53.446;9.988;2023-05-19T09:01:06;17.10;99.90
16388;DHT22;8303;53.446;9.988;2023-05-19T09:03:34;17.30;99.90
16388;DHT22;8303;53.446;9.988;2023-05-19T09:06:04;17.40;99.90
16388;DHT22;8303;53.446;9.988;2023-05-19T09:08:33;17.30;99.90
16388;DHT22;8303;53.446;9.988;2023-05-19T09:11:00;16.90;99.90
16388;DHT22;8303;53.446;9.988;2023-05-19T09:13:30;17.00;99.90
16388;DHT22;8303;53.446;9.988;2023-05-19T09:15:59;17.10;99.90
16388;DHT22;8303;53.446;9.988;2023-05-19T09:18:28;17.10;99.90
16388;DHT22;8303;53.446;9.988;2023-05-19T09:20:57;17.50;99.90
16388;DHT22;8303;53.446;9.988;2023-05-19T09:23:27;17.50;99.90
16388;DHT22;8303;53.446;9.988;2023-05-19T09:25:55;17.70;99.90
16388;DHT22;8303;53.446;9.988;2023-05-19T09:28:24;18.00;99.90
16388;DHT22;8303;53.446;9.988;2023-05-19T09:30:58;17.90;99.90
16388;DHT22;8303;53.446;9.988;2023-05-19T09:33:27;18.10;99.90
16388;DHT22;8303;53.446;9.988;2023-05-19T09:35:56;18.00;99.90
16388;DHT22;8303;53.446;9.988;2023-05-19T09:38:23;17.70;99.90
16388;DHT22;8303;53.446;9.988;2023-05-19T09:40:51;17.70;99.90
16388;DHT22;8303;53.446;9.988;2023-05-19T09:43:20;17.80;99.90
16388;DHT22;8303;53.446;9.988;2023-05-19T09:45:47;18.10;99.90
16388;DHT22;8303;53.446;9.988;2023-05-19T09:48:15;17.80;99.90
16388;DHT22;8303;53.446;9.988;2023-05-19T09:50:44;17.70;99.90
16388;DHT22;8303;53.446;9.988;2023-05-19T09:53:12;17.80;99.90
16388;DHT22;8303;53.446;9.988;2023-05-19T09:55:40;17.80;99.90
16388;DHT22;8303;53.446;9.988;2023-05-19T09:58:08;17.70;99.90
16388;DHT22;8303;53.446;9.988;2023-05-19T10:00:35;17.80;99.90
16388;DHT22;8303;53.446;9.988;2023-05-19T10:03:04;17.90;99.90
16388;DHT22;8303;53.446;9.988;2023-05-19T10:05:32;18.00;99.90
16388;DHT22;8303;53.446;9.988;2023-05-19T10:08:01;17.90;99.90
16388;DHT22;8303;53.446;9.988;2023-05-19T10:10:32;17.70;99.90
16388;DHT22;8303;53.446;9.988;2023-05-19T10:13:00;18.00;99.90
16388;DHT22;8303;53.446;9.988;2023-05-19T10:15:29;17.90;99.90
16388;DHT22;8303;53.446;9.988;2023-05-19T10:17:56;17.90;99.90
16388;DHT22;8303;53.446;9.988;2023-05-19T10:20:26;17.70;99.90
16388;DHT22;8303;53.446;9.988;2023-05-19T10:22:53;17.80;99.90
16388;DHT22;8303;53.446;9.988;2023-05-19T10:25:22;17.90;99.90
16388;DHT22;8303;53.446;9.988;2023-05-19T10:27:53;18.10;99.90
16388;DHT22;8303;53.446;9.988;2023-05-19T10:30:25;18.00;99.90
16388;DHT22;8303;53.446;9.988;2023-05-19T10:32:52;18.30;99.90
16388;DHT22;8303;53.446;9.988;2023-05-19T10:38:31;18.40;99.90
16388;DHT22;8303;53.446;9.988;2023-05-19T10:41:05;18.40;99.90
16388;DHT22;8303;53.446;9.988;2023-05-19T10:43:48;18.20;99.90
16388;DHT22;8303;53.446;9.988;2023-05-19T10:46:23;18.30;99.90
16388;DHT22;8303;53.446;9.988;2023-05-19T10:48:51;18.40;99.90
16388;DHT22;8303;53.446;9.988;2023-05-19T10:51:18;18.80;99.90
16388;DHT22;8303;53.446;9.988;2023-05-19T10:53:45;18.90;99.90
16388;DHT22;8303;53.446;9.988;2023-05-19T10:56:29;19.00;99.90
16388;DHT22;8303;53.446;9.988;2023-05-19T10:58:58;19.00;99.90
16388;DHT22;8303;53.446;9.988;2023-05-19T11:01:32;19.40;99.90
16388;DHT22;8303;53.446;9.988;2023-05-19T11:04:04;19.40;99.90
16388;DHT22;8303;53.446;9.988;2023-05-19T11:06:32;19.60;99.90
16388;DHT22;8303;53.446;9.988;2023-05-19T11:09:01;19.60;99.90
16388;DHT22;8303;53.446;9.988;2023-05-19T11:11:46;19.60;99.90
16388;DHT22;8303;53.446;9.988;2023-05-19T11:14:16;19.50;99.90
16388;DHT22;8303;53.446;9.988;2023-05-19T11:16:46;19.50;99.90
16388;DHT22;8303;53.446;9.988;2023-05-19T11:19:17;19.60;99.90
16388;DHT22;8303;53.446;9.988;2023-05-19T11:21:49;19.10;99.90
16388;DHT22;8303;53.446;9.988;2023-05-19T11:24:35;19.50;99.90
16388;DHT22;8303;53.446;9.988;2023-05-19T11:27:24;20.10;99.90
16388;DHT22;8303;53.446;9.988;2023-05-19T11:29:53;20.40;99.90
16388;DHT22;8303;53.446;9.988;2023-05-19T11:32:20;20.20;99.90
16388;DHT22;8303;53.446;9.988;2023-05-19T11:34:48;20.20;99.90
16388;DHT22;8303;53.446;9.988;2023-05-19T11:37:16;20.40;99.90
16388;DHT22;8303;53.446;9.988;2023-05-19T11:39:45;20.60;99.90
16388;DHT22;8303;53.446;9.988;2023-05-19T11:42:12;20.60;99.90
16388;DHT22;8303;53.446;9.988;2023-05-19T11:44:42;19.80;99.90
16388;DHT22;8303;53.446;9.988;2023-05-19T11:47:11;19.60;99.90
16388;DHT22;8303;53.446;9.988;2023-05-19T11:49:42;19.60;99.90
16388;DHT22;8303;53.446;9.988;2023-05-19T11:52:10;20.20;99.90
16388;DHT22;8303;53.446;9.988;2023-05-19T11:54:40;20.90;99.90
16388;DHT22;8303;53.446;9.988;2023-05-19T11:57:08;21.20;99.90
16388;DHT22;8303;53.446;9.988;2023-05-19T11:59:36;21.30;99.90
16388;DHT22;8303;53.446;9.988;2023-05-19T12:02:16;21.50;99.90
16388;DHT22;8303;53.446;9.988;2023-05-19T12:04:44;21.50;99.90
16388;DHT22;8303;53.446;9.988;2023-05-19T12:07:12;21.50;99.90
16388;DHT22;8303;53.446;9.988;2023-05-19T12:09:42;21.20;99.90
16388;DHT22;8303;53.446;9.988;2023-05-19T12:12:12;21.10;99.90
16388;DHT22;8303;53.446;9.988;2023-05-19T12:14:41;20.70;99.90
16388;DHT22;8303;53.446;9.988;2023-05-19T12:17:11;20.80;99.90
16388;DHT22;8303;53.446;9.988;2023-05-19T12:19:42;21.50;99.90
16388;DHT22;8303;53.446;9.988;2023-05-19T12:22:10;21.10;99.90
16388;DHT22;8303;53.446;9.988;2023-05-19T12:24:39;20.70;99.90
16388;DHT22;8303;53.446;9.988;2023-05-19T12:27:10;20.80;99.90
16388;DHT22;8303;53.446;9.988;2023-05-19T12:29:38;21.10;99.90
16388;DHT22;8303;53.446;9.988;2023-05-19T12:32:07;20.80;99.90
16388;DHT22;8303;53.446;9.988;2023-05-19T12:34:35;20.80;99.90
16388;DHT22;8303;53.446;9.988;2023-05-19T12:37:05;21.40;99.90
16388;DHT22;8303;53.446;9.988;2023-05-19T12:39:32;21.90;99.90
16388;DHT22;8303;53.446;9.988;2023-05-19T12:42:02;22.30;99.90
16388;DHT22;8303;53.446;9.988;2023-05-19T12:44:30;22.30;99.90
16388;DHT22;8303;53.446;9.988;2023-05-19T12:47:03;23.00;99.90
16388;DHT22;8303;53.446;9.988;2023-05-19T12:49:32;22.50;99.90
16388;DHT22;8303;53.446;9.988;2023-05-19T12:52:00;21.70;99.90
16388;DHT22;8303;53.446;9.988;2023-05-19T12:54:32;22.00;99.90
16388;DHT22;8303;53.446;9.988;2023-05-19T12:57:00;22.00;99.90
16388;DHT22;8303;53.446;9.988;2023-05-19T12:59:27;22.30;99.90
16388;DHT22;8303;53.446;9.988;2023-05-19T13:01:59;22.80;99.90
16388;DHT22;8303;53.446;9.988;2023-05-19T13:04:27;23.40;99.90
16388;DHT22;8303;53.446;9.988;2023-05-19T13:06:54;23.10;99.90
16388;DHT22;8303;53.446;9.988;2023-05-19T13:09:21;22.60;99.90
16388;DHT22;8303;53.446;9.988;2023-05-19T13:11:50;21.90;99.90
16388;DHT22;8303;53.446;9.988;2023-05-19T13:14:18;21.90;99.90
16388;DHT22;8303;53.446;9.988;2023-05-19T13:16:46;21.90;99.90
16388;DHT22;8303;53.446;9.988;2023-05-19T13:19:16;21.70;99.90
16388;DHT22;8303;53.446;9.988;2023-05-19T13:21:44;21.60;99.90
16388;DHT22;8303;53.446;9.988;2023-05-19T13:24:13;21.20;99.90
16388;DHT22;8303;53.446;9.988;2023-05-19T13:26:40;20.80;99.90
16388;DHT22;8303;53.446;9.988;2023-05-19T13:29:09;20.00;99.90
16388;DHT22;8303;53.446;9.988;2023-05-19T13:31:36;20.70;99.90
16388;DHT22;8303;53.446;9.988;2023-05-19T13:34:03;21.40;99.90
16388;DHT22;8303;53.446;9.988;2023-05-19T13:36:31;22.00;99.90
16388;DHT22;8303;53.446;9.988;2023-05-19T13:38:59;22.10;99.90
16388;DHT22;8303;53.446;9.988;2023-05-19T13:41:27;22.70;99.90
16388;DHT22;8303;53.446;9.988;2023-05-19T13:43:57;22.70;99.90
16388;DHT22;8303;53.446;9.988;2023-05-19T13:46:26;23.10;99.90
16388;DHT22;8303;53.446;9.988;2023-05-19T13:48:53;22.40;99.90
16388;DHT22;8303;53.446;9.988;2023-05-19T13:51:20;21.70;99.90
16388;DHT22;8303;53.446;9.988;2023-05-19T13:53:47;21.80;99.90
16388;DHT22;8303;53.446;9.988;2023-05-19T13:56:15;22.20;99.90
16388;DHT22;8303;53.446;9.988;2023-05-19T13:58:42;22.80;99.90
16388;DHT22;8303;53.446;9.988;2023-05-19T14:01:09;23.00;99.90
16388;DHT22;8303;53.446;9.988;2023-05-19T14:03:38;23.40;99.90
16388;DHT22;8303;53.446;9.988;2023-05-19T14:06:05;23.90;99.90
16388;DHT22;8303;53.446;9.988;2023-05-19T14:08:36;23.90;99.90
16388;DHT22;8303;53.446;9.988;2023-05-19T14:11:03;24.30;99.90
16388;DHT22;8303;53.446;9.988;2023-05-19T14:13:30;24.20;99.90
16388;DHT22;8303;53.446;9.988;2023-05-19T14:15:58;24.80;99.90
16388;DHT22;8303;53.446;9.988;2023-05-19T14:18:25;22.90;99.90
16388;DHT22;8303;53.446;9.988;2023-05-19T14:20:54;21.40;99.90
16388;DHT22;8303;53.446;9.988;2023-05-19T14:23:21;20.50;99.90
16388;DHT22;8303;53.446;9.988;2023-05-19T14:25:48;20.00;99.90
16388;DHT22;8303;53.446;9.988;2023-05-19T14:28:15;19.70;99.90
16388;DHT22;8303;53.446;9.988;2023-05-19T14:30:43;19.60;99.90
16388;DHT22;8303;53.446;9.988;2023-05-19T14:33:10;19.50;99.90
16388;DHT22;8303;53.446;9.988;2023-05-19T14:35:37;19.40;99.90
16388;DHT22;8303;53.446;9.988;2023-05-19T14:38:06;19.70;99.90
16388;DHT22;8303;53.446;9.988;2023-05-19T14:40:35;20.20;99.90
16388;DHT22;8303;53.446;9.988;2023-05-19T14:43:03;20.20;99.90
16388;DHT22;8303;53.446;9.988;2023-05-19T14:45:30;21.20;99.90
16388;DHT22;8303;53.446;9.988;2023-05-19T14:47:57;22.20;99.90
16388;DHT22;8303;53.446;9.988;2023-05-19T14:50:24;23.00;99.90
16388;DHT22;8303;53.446;9.988;2023-05-19T14:52:52;24.10;99.90
16388;DHT22;8303;53.446;9.988;2023-05-19T14:55:20;24.60;99.90
16388;DHT22;8303;53.446;9.988;2023-05-19T14:57:48;23.50;99.90
16388;DHT22;8303;53.446;9.988;2023-05-19T15:00:16;22.00;99.90
16388;DHT22;8303;53.446;9.988;2023-05-19T15:02:43;20.80;99.90
16388;DHT22;8303;53.446;9.988;2023-05-19T15:05:11;20.30;99.90
16388;DHT22;8303;53.446;9.988;2023-05-19T15:07:38;20.40;99.90
16388;DHT22;8303;53.446;9.988;2023-05-19T15:10:06;21.10;99.90
16388;DHT22;8303;53.446;9.988;2023-05-19T15:12:35;21.20;99.90
16388;DHT22;8303;53.446;9.988;2023-05-19T15:15:02;20.60;99.90
16388;DHT22;8303;53.446;9.988;2023-05-19T15:17:30;20.10;99.90
16388;DHT22;8303;53.446;9.988;2023-05-19T15:19:57;19.80;99.90
16388;DHT22;8303;53.446;9.988;2023-05-19T15:22:25;19.90;99.90
16388;DHT22;8303;53.446;9.988;2023-05-19T15:24:52;20.30;99.90
16388;DHT22;8303;53.446;9.988;2023-05-19T15:27:19;21.80;99.90
16388;DHT22;8303;53.446;9.988;2023-05-19T15:29:48;21.40;99.90
16388;DHT22;8303;53.446;9.988;2023-05-19T15:32:15;21.30;99.90
16388;DHT22;8303;53.446;9.988;2023-05-19T15:34:43;21.40;99.90
16388;DHT22;8303;53.446;9.988;2023-05-19T15:37:10;21.40;99.90
16388;DHT22;8303;53.446;9.988;2023-05-19T15:39:37;21.80;99.90
16388;DHT22;8303;53.446;9.988;2023-05-19T15:42:05;23.40;99.90
16388;DHT22;8303;53.446;9.988;2023-05-19T15:44:32;23.30;99.90
16388;DHT22;8303;53.446;9.988;2023-05-19T15:47:02;23.60;99.90
16388;DHT22;8303;53.446;9.988;2023-05-19T15:49:29;24.40;99.90
16388;DHT22;8303;53.446;9.988;2023-05-19T15:51:57;24.80;99.90
16388;DHT22;8303;53.446;9.988;2023-05-19T15:54:24;25.20;99.90
16388;DHT22;8303;53.446;9.988;2023-05-19T15:56:51;24.80;99.90
16388;DHT22;8303;53.446;9.988;2023-05-19T15:59:18;26.20;99.90
16388;DHT22;8303;53.446;9.988;2023-05-19T16:01:45;27.90;99.90
16388;DHT22;8303;53.446;9.988;2023-05-19T16:04:14;28.00;99.90
16388;DHT22;8303;53.446;9.988;2023-05-19T16:06:42;28.10;99.90
16388;DHT22;8303;53.446;9.988;2023-05-19T16:09:10;28.20;99.90
16388;DHT22;8303;53.446;9.988;2023-05-19T16:11:37;27.70;99.90
16388;DHT22;8303;53.446;9.988;2023-05-19T16:14:04;27.50;99.90
16388;DHT22;8303;53.446;9.988;2023-05-19T16:16:31;26.20;99.90
16388;DHT22;8303;53.446;9.988;2023-05-19T16:18:59;23.10;99.90
16388;DHT22;8303;53.446;9.988;2023-05-19T16:21:28;23.10;99.90
16388;DHT22;8303;53.446;9.988;2023-05-19T16:23:56;22.20;99.90
16388;DHT22;8303;53.446;9.988;2023-05-19T16:26:23;21.50;99.90
16388;DHT22;8303;53.446;9.988;2023-05-19T16:28:51;21.20;99.90
16388;DHT22;8303;53.446;9.988;2023-05-19T16:31:18;21.50;99.90
16388;DHT22;8303;53.446;9.988;2023-05-19T16:33:45;21.10;99.90
16388;DHT22;8303;53.446;9.988;2023-05-19T16:36:12;22.20;99.90
16388;DHT22;8303;53.446;9.988;2023-05-19T16:38:41;23.90;99.90
16388;DHT22;8303;53.446;9.988;2023-05-19T16:41:10;24.50;99.90
16388;DHT22;8303;53.446;9.988;2023-05-19T16:43:37;24.00;99.90
16388;DHT22;8303;53.446;9.988;2023-05-19T16:46:05;22.50;99.90
16388;DHT22;8303;53.446;9.988;2023-05-19T16:48:34;22.20;99.90
16388;DHT22;8303;53.446;9.988;2023-05-19T16:51:01;21.80;99.90
16388;DHT22;8303;53.446;9.988;2023-05-19T16:53:28;20.80;99.90
16388;DHT22;8303;53.446;9.988;2023-05-19T16:55:58;20.30;99.90
16388;DHT22;8303;53.446;9.988;2023-05-19T16:58:25;20.40;99.90
16388;DHT22;8303;53.446;9.988;2023-05-19T17:00:53;20.20;99.90
16388;DHT22;8303;53.446;9.988;2023-05-19T17:03:20;20.20;99.90
16388;DHT22;8303;53.446;9.988;2023-05-19T17:05:48;20.70;99.90
16388;DHT22;8303;53.446;9.988;2023-05-19T17:08:15;20.90;99.90
16388;DHT22;8303;53.446;9.988;2023-05-19T17:10:42;21.10;99.90
16388;DHT22;8303;53.446;9.988;2023-05-19T17:13:11;21.50;99.90
16388;DHT22;8303;53.446;9.988;2023-05-19T17:15:39;20.80;99.90
16388;DHT22;8303;53.446;9.988;2023-05-19T17:18:06;20.10;99.90
16388;DHT22;8303;53.446;9.988;2023-05-19T17:20:33;19.70;99.90
16388;DHT22;8303;53.446;9.988;2023-05-19T17:23:00;19.10;99.90
16388;DHT22;8303;53.446;9.988;2023-05-19T17:25:28;18.70;99.90
16388;DHT22;8303;53.446;9.988;2023-05-19T17:27:55;18.70;99.90
16388;DHT22;8303;53.446;9.988;2023-05-19T17:30:24;18.20;99.90
16388;DHT22;8303;53.446;9.988;2023-05-19T17:32:51;18.30;99.90
16388;DHT22;8303;53.446;9.988;2023-05-19T17:35:18;18.20;99.90
16388;DHT22;8303;53.446;9.988;2023-05-19T17:37:46;18.10;99.90
16388;DHT22;8303;53.446;9.988;2023-05-19T17:40:14;17.90;99.90
16388;DHT22;8303;53.446;9.988;2023-05-19T17:42:41;17.70;99.90
16388;DHT22;8303;53.446;9.988;2023-05-19T17:45:09;17.50;99.90
16388;DHT22;8303;53.446;9.988;2023-05-19T17:47:39;17.40;99.90
16388;DHT22;8303;53.446;9.988;2023-05-19T17:50:07;17.40;99.90
16388;DHT22;8303;53.446;9.988;2023-05-19T17:52:35;17.40;99.90
16388;DHT22;8303;53.446;9.988;2023-05-19T17:55:03;17.40;99.90
16388;DHT22;8303;53.446;9.988;2023-05-19T17:57:32;17.30;99.90
16388;DHT22;8303;53.446;9.988;2023-05-19T18:00:01;17.30;99.90
16388;DHT22;8303;53.446;9.988;2023-05-19T18:02:29;17.30;99.90
16388;DHT22;8303;53.446;9.988;2023-05-19T18:04:58;17.20;99.90
16388;DHT22;8303;53.446;9.988;2023-05-19T18:07:27;17.00;99.90
16388;DHT22;8303;53.446;9.988;2023-05-19T18:09:55;16.80;99.90
16388;DHT22;8303;53.446;9.988;2023-05-19T18:12:23;16.60;99.90
16388;DHT22;8303;53.446;9.988;2023-05-19T18:14:50;16.40;99.90
16388;DHT22;8303;53.446;9.988;2023-05-19T18:17:17;16.30;99.90
16388;DHT22;8303;53.446;9.988;2023-05-19T18:19:44;16.20;99.90
16388;DHT22;8303;53.446;9.988;2023-05-19T18:22:13;16.10;99.90
16388;DHT22;8303;53.446;9.988;2023-05-19T18:24:42;16.00;99.90
16388;DHT22;8303;53.446;9.988;2023-05-19T18:27:09;16.10;99.90
16388;DHT22;8303;53.446;9.988;2023-05-19T18:29:37;16.00;99.90
16388;DHT22;8303;53.446;9.988;2023-05-19T18:32:05;16.00;99.90
16388;DHT22;8303;53.446;9.988;2023-05-19T18:34:33;16.00;99.90
16388;DHT22;8303;53.446;9.988;2023-05-19T18:37:00;15.90;99.90
16388;DHT22;8303;53.446;9.988;2023-05-19T18:39:29;15.90;99.90
16388;DHT22;8303;53.446;9.988;2023-05-19T18:41:56;15.90;99.90
16388;DHT22;8303;53.446;9.988;2023-05-19T18:44:23;15.70;99.90
16388;DHT22;8303;53.446;9.988;2023-05-19T18:46:50;15.70;99.90
16388;DHT22;8303;53.446;9.988;2023-05-19T18:49:18;15.60;99.90
16388;DHT22;8303;53.446;9.988;2023-05-19T18:51:45;15.50;99.90
16388;DHT22;8303;53.446;9.988;2023-05-19T18:54:14;15.40;99.90
16388;DHT22;8303;53.446;9.988;2023-05-19T18:56:43;15.50;99.90
16388;DHT22;8303;53.446;9.988;2023-05-19T18:59:11;15.50;99.90
16388;DHT22;8303;53.446;9.988;2023-05-19T19:01:38;15.40;99.90
16388;DHT22;8303;53.446;9.988;2023-05-19T19:04:06;15.40;99.90
16388;DHT22;8303;53.446;9.988;2023-05-19T19:06:33;15.40;99.90
16388;DHT22;8303;53.446;9.988;2023-05-19T19:09:00;15.40;99.90
16388;DHT22;8303;53.446;9.988;2023-05-19T19:11:28;15.30;99.90
16388;DHT22;8303;53.446;9.988;2023-05-19T19:13:56;15.30;99.90
16388;DHT22;8303;53.446;9.988;2023-05-19T19:16:24;15.20;99.90
16388;DHT22;8303;53.446;9.988;2023-05-19T19:18:51;15.20;99.90
16388;DHT22;8303;53.446;9.988;2023-05-19T19:21:18;15.10;99.90
16388;DHT22;8303;53.446;9.988;2023-05-19T19:23:48;15.10;99.90
16388;DHT22;8303;53.446;9.988;2023-05-19T19:26:15;15.10;99.90
16388;DHT22;8303;53.446;9.988;2023-05-19T19:28:43;15.00;99.90
16388;DHT22;8303;53.446;9.988;2023-05-19T19:31:12;15.00;99.90
16388;DHT22;8303;53.446;9.988;2023-05-19T19:33:39;14.90;99.90
16388;DHT22;8303;53.446;9.988;2023-05-19T19:36:08;14.90;99.90
16388;DHT22;8303;53.446;9.988;2023-05-19T19:38:35;14.90;99.90
16388;DHT22;8303;53.446;9.988;2023-05-19T19:41:03;14.90;99.90
16388;DHT22;8303;53.446;9.988;2023-05-19T19:43:31;14.80;99.90
16388;DHT22;8303;53.446;9.988;2023-05-19T19:45:59;14.80;99.90
16388;DHT22;8303;53.446;9.988;2023-05-19T19:48:28;14.70;99.90
16388;DHT22;8303;53.446;9.988;2023-05-19T19:50:56;14.60;99.90
16388;DHT22;8303;53.446;9.988;2023-05-19T19:53:24;14.60;99.90
16388;DHT22;8303;53.446;9.988;2023-05-19T19:55:58;14.60;99.90
16388;DHT22;8303;53.446;9.988;2023-05-19T19:58:26;14.50;99.90
16388;DHT22;8303;53.446;9.988;2023-05-19T20:00:57;14.50;99.90
16388;DHT22;8303;53.446;9.988;2023-05-19T20:03:25;14.40;1.00
16388;DHT22;8303;53.446;9.988;2023-05-19T20:05:54;14.40;1.00
16388;DHT22;8303;53.446;9.988;2023-05-19T20:08:22;14.30;1.00
16388;DHT22;8303;53.446;9.988;2023-05-19T20:10:49;14.20;1.00
16388;DHT22;8303;53.446;9.988;2023-05-19T20:13:17;14.20;1.00
16388;DHT22;8303;53.446;9.988;2023-05-19T20:15:45;14.20;1.00
16388;DHT22;8303;53.446;9.988;2023-05-19T20:18:12;14.10;1.00
16388;DHT22;8303;53.446;9.988;2023-05-19T20:20:40;14.10;1.00
16388;DHT22;8303;53.446;9.988;2023-05-19T20:23:09;14.10;1.00
16388;DHT22;8303;53.446;9.988;2023-05-19T20:25:38;14.10;1.00
16388;DHT22;8303;53.446;9.988;2023-05-19T20:28:07;14.00;1.00
